sensor_id;sensor_type;location;lat;lon;timestamp;temperature;humidity
13794;DHT22;31160;49.500;7.772;2023-02-19T00:01:41;9.50;99.90
13794;DHT22;31160;49.500;7.772;2023-02-19T00:04:14;9.50;99.90
13794;DHT22;31160;49.500;7.772;2023-02-19T00:06:42;9.40;99.90
13794;DHT22;31160;49.500;7.772;2023-02-19T00:09:10;9.40;99.90
13794;DHT22;31160;49.500;7.772;2023-02-19T00:11:38;9.40;99.90
13794;DHT22;31160;49.500;7.772;2023-02-19T00:14:05;9.30;99.90
13794;DHT22;31160;49.500;7.772;2023-02-19T00:16:36;9.30;99.90
13794;DHT22;31160;49.500;7.772;2023-02-19T00:19:05;9.30;99.90
13794;DHT22;31160;49.500;7.772;2023-02-19T00:21:33;9.30;99.90
13794;DHT22;31160;49.500;7.772;2023-02-19T00:24:03;9.30;99.90
13794;DHT22;31160;49.500;7.772;2023-02-19T00:26:30;9.30;99.90
13794;DHT22;31160;49.500;7.772;2023-02-19T00:28:57;9.40;99.90
13794;DHT22;31160;49.500;7.772;2023-02-19T00:31:27;9.30;99.90
13794;DHT22;31160;49.500;7.772;2023-02-19T00:34:01;9.30;99.90
13794;DHT22;31160;49.500;7.772;2023-02-19T00:36:28;9.40;99.90
13794;DHT22;31160;49.500;7.772;2023-02-19T00:38:56;9.40;99.90
13794;DHT22;31160;49.500;7.772;2023-02-19T00:41:25;9.40;99.90
13794;DHT22;31160;49.500;7.772;2023-02-19T00:44:05;9.50;99.90
13794;DHT22;31160;49.500;7.772;2023-02-19T00:46:35;9.20;99.90
13794;DHT22;31160;49.500;7.772;2023-02-19T00:49:05;9.30;99.90
13794;DHT22;31160;49.500;7.772;2023-02-19T00:51:34;9.30;99.90
13794;DHT22;31160;49.500;7.772;2023-02-19T00:54:02;9.40;99.90
13794;DHT22;31160;49.500;7.772;2023-02-19T00:56:29;9.40;99.90
13794;DHT22;31160;49.500;7.772;2023-02-19T00:58:56;9.30;99.90
13794;DHT22;31160;49.500;7.772;2023-02-19T01:01:23;9.30;99.90
13794;DHT22;31160;49.500;7.772;2023-02-19T01:03:50;9.30;99.90
13794;DHT22;31160;49.500;7.772;2023-02-19T01:06:19;9.20;99.90
13794;DHT22;31160;49.500;7.772;2023-02-19T01:08:46;9.30;99.90
13794;DHT22;31160;49.500;7.772;2023-02-19T01:11:13;9.20;99.90
13794;DHT22;31160;49.500;7.772;2023-02-19T01:13:41;9.30;99.90
13794;DHT22;31160;49.500;7.772;2023-02-19T01:16:20;9.40;99.90
13794;DHT22;31160;49.500;7.772;2023-02-19T01:18:47;9.20;99.90
13794;DHT22;31160;49.500;7.772;2023-02-19T01:21:19;9.10;99.90
13794;DHT22;31160;49.500;7.772;2023-02-19T01:23:48;8.90;99.90
13794;DHT22;31160;49.500;7.772;2023-02-19T01:26:18;8.90;99.90
13794;DHT22;31160;49.500;7.772;2023-02-19T01:28:45;8.90;99.90
13794;DHT22;31160;49.500;7.772;2023-02-19T01:31:14;8.80;99.90
13794;DHT22;31160;49.500;7.772;2023-02-19T01:33:50;8.90;99.90
13794;DHT22;31160;49.500;7.772;2023-02-19T01:36:17;8.80;99.90
13794;DHT22;31160;49.500;7.772;2023-02-19T01:38:45;8.80;99.90
13794;DHT22;31160;49.500;7.772;2023-02-19T01:41:19;8.90;99.90
13794;DHT22;31160;49.500;7.772;2023-02-19T01:46:40;8.90;99.90
13794;DHT22;31160;49.500;7.772;2023-02-19T01:49:21;8.80;99.90
13794;DHT22;31160;49.500;7.772;2023-02-19T01:51:58;8.80;99.90
13794;DHT22;31160;49.500;7.772;2023-02-19T01:54:30;8.90;99.90
13794;DHT22;31160;49.500;7.772;2023-02-19T01:56:58;8.90;99.90
13794;DHT22;31160;49.500;7.772;2023-02-19T01:59:27;8.90;99.90
13794;DHT22;31160;49.500;7.772;2023-02-19T02:01:54;8.70;99.90
13794;DHT22;31160;49.500;7.772;2023-02-19T02:04:21;8.60;99.90
13794;DHT22;31160;49.500;7.772;2023-02-19T02:06:52;8.80;99.90
13794;DHT22;31160;49.500;7.772;2023-02-19T02:09:25;8.80;99.90
13794;DHT22;31160;49.500;7.772;2023-02-19T02:12:11;8.80;99.90
13794;DHT22;31160;49.500;7.772;2023-02-19T02:14:41;8.80;99.90
13794;DHT22;31160;49.500;7.772;2023-02-19T02:17:24;8.90;99.90
13794;DHT22;31160;49.500;7.772;2023-02-19T02:22:45;8.80;99.90
13794;DHT22;31160;49.500;7.772;2023-02-19T02:28:00;8.80;99.90
13794;DHT22;31160;49.500;7.772;2023-02-19T02:33:35;9.00;99.90
13794;DHT22;31160;49.500;7.772;2023-02-19T02:36:06;8.90;99.90
13794;DHT22;31160;49.500;7.772;2023-02-19T02:38:39;9.00;99.90
13794;DHT22;31160;49.500;7.772;2023-02-19T02:41:07;9.00;99.90
13794;DHT22;31160;49.500;7.772;2023-02-19T02:43:35;9.00;99.90
13794;DHT22;31160;49.500;7.772;2023-02-19T02:46:02;9.00;99.90
13794;DHT22;31160;49.500;7.772;2023-02-19T02:53:50;8.90;99.90
13794;DHT22;31160;49.500;7.772;2023-02-19T02:56:39;8.90;99.90
13794;DHT22;31160;49.500;7.772;2023-02-19T02:59:09;8.90;99.90
13794;DHT22;31160;49.500;7.772;2023-02-19T03:01:48;8.90;99.90
13794;DHT22;31160;49.500;7.772;2023-02-19T03:07:40;9.00;99.90
13794;DHT22;31160;49.500;7.772;2023-02-19T03:10:12;9.10;99.90
13794;DHT22;31160;49.500;7.772;2023-02-19T03:12:41;9.00;99.90
13794;DHT22;31160;49.500;7.772;2023-02-19T03:15:34;9.10;99.90
13794;DHT22;31160;49.500;7.772;2023-02-19T03:18:22;9.20;99.90
13794;DHT22;31160;49.500;7.772;2023-02-19T03:21:10;8.90;99.90
13794;DHT22;31160;49.500;7.772;2023-02-19T03:23:38;9.00;99.90
13794;DHT22;31160;49.500;7.772;2023-02-19T03:26:25;9.20;99.90
13794;DHT22;31160;49.500;7.772;2023-02-19T03:28:53;9.20;99.90
13794;DHT22;31160;49.500;7.772;2023-02-19T03:31:42;9.10;99.90
13794;DHT22;31160;49.500;7.772;2023-02-19T03:34:15;9.00;99.90
13794;DHT22;31160;49.500;7.772;2023-02-19T03:36:45;9.10;99.90
13794;DHT22;31160;49.500;7.772;2023-02-19T03:39:16;9.00;99.90
13794;DHT22;31160;49.500;7.772;2023-02-19T03:55:11;9.20;99.90
13794;DHT22;31160;49.500;7.772;2023-02-19T03:57:52;9.10;99.90
13794;DHT22;31160;49.500;7.772;2023-02-19T04:00:31;9.20;99.90
13794;DHT22;31160;49.500;7.772;2023-02-19T04:06:15;9.20;99.90
13794;DHT22;31160;49.500;7.772;2023-02-19T04:08:46;9.20;99.90
13794;DHT22;31160;49.500;7.772;2023-02-19T04:11:17;9.20;99.90
13794;DHT22;31160;49.500;7.772;2023-02-19T04:13:50;9.10;99.90
13794;DHT22;31160;49.500;7.772;2023-02-19T04:16:21;9.10;99.90
13794;DHT22;31160;49.500;7.772;2023-02-19T04:18:52;9.00;99.90
13794;DHT22;31160;49.500;7.772;2023-02-19T04:21:21;8.80;99.90
13794;DHT22;31160;49.500;7.772;2023-02-19T04:23:48;8.80;99.90
13794;DHT22;31160;49.500;7.772;2023-02-19T04:26:16;8.70;99.90
13794;DHT22;31160;49.500;7.772;2023-02-19T04:28:44;8.70;99.90
13794;DHT22;31160;49.500;7.772;2023-02-19T04:31:12;8.80;99.90
13794;DHT22;31160;49.500;7.772;2023-02-19T04:33:39;8.90;99.90
13794;DHT22;31160;49.500;7.772;2023-02-19T04:36:06;8.90;99.90
13794;DHT22;31160;49.500;7.772;2023-02-19T04:38:33;8.90;99.90
13794;DHT22;31160;49.500;7.772;2023-02-19T04:41:00;8.80;99.90
13794;DHT22;31160;49.500;7.772;2023-02-19T04:43:26;8.70;99.90
13794;DHT22;31160;49.500;7.772;2023-02-19T04:45:53;8.80;99.90
13794;DHT22;31160;49.500;7.772;2023-02-19T04:48:20;8.80;99.90
13794;DHT22;31160;49.500;7.772;2023-02-19T04:50:46;8.70;99.90
13794;DHT22;31160;49.500;7.772;2023-02-19T04:53:13;8.60;99.90
13794;DHT22;31160;49.500;7.772;2023-02-19T04:55:40;8.50;99.90
13794;DHT22;31160;49.500;7.772;2023-02-19T04:58:06;8.50;99.90
13794;DHT22;31160;49.500;7.772;2023-02-19T05:00:33;8.50;99.90
13794;DHT22;31160;49.500;7.772;2023-02-19T05:03:00;8.60;99.90
13794;DHT22;31160;49.500;7.772;2023-02-19T05:05:27;8.60;99.90
13794;DHT22;31160;49.500;7.772;2023-02-19T05:07:53;8.70;99.90
13794;DHT22;31160;49.500;7.772;2023-02-19T05:10:20;8.70;99.90
13794;DHT22;31160;49.500;7.772;2023-02-19T05:12:47;8.80;99.90
13794;DHT22;31160;49.500;7.772;2023-02-19T05:15:14;8.80;99.90
13794;DHT22;31160;49.500;7.772;2023-02-19T05:17:40;8.70;99.90
13794;DHT22;31160;49.500;7.772;2023-02-19T05:20:07;8.80;99.90
13794;DHT22;31160;49.500;7.772;2023-02-19T05:22:34;8.60;99.90
13794;DHT22;31160;49.500;7.772;2023-02-19T05:25:01;8.60;99.90
13794;DHT22;31160;49.500;7.772;2023-02-19T05:27:29;8.60;99.90
13794;DHT22;31160;49.500;7.772;2023-02-19T05:29:56;8.60;99.90
13794;DHT22;31160;49.500;7.772;2023-02-19T05:32:23;8.60;99.90
13794;DHT22;31160;49.500;7.772;2023-02-19T05:34:50;8.60;99.90
13794;DHT22;31160;49.500;7.772;2023-02-19T05:37:16;8.70;99.90
13794;DHT22;31160;49.500;7.772;2023-02-19T05:39:43;8.60;99.90
13794;DHT22;31160;49.500;7.772;2023-02-19T05:42:12;8.50;99.90
13794;DHT22;31160;49.500;7.772;2023-02-19T05:44:39;8.50;99.90
13794;DHT22;31160;49.500;7.772;2023-02-19T05:47:05;8.50;99.90
13794;DHT22;31160;49.500;7.772;2023-02-19T05:49:32;8.60;99.90
13794;DHT22;31160;49.500;7.772;2023-02-19T05:51:59;8.70;99.90
13794;DHT22;31160;49.500;7.772;2023-02-19T05:54:28;8.70;99.90
13794;DHT22;31160;49.500;7.772;2023-02-19T05:56:55;8.60;99.90
13794;DHT22;31160;49.500;7.772;2023-02-19T05:59:24;8.50;99.90
13794;DHT22;31160;49.500;7.772;2023-02-19T06:01:52;8.50;99.90
13794;DHT22;31160;49.500;7.772;2023-02-19T06:04:19;8.60;99.90
13794;DHT22;31160;49.500;7.772;2023-02-19T06:06:46;8.60;99.90
13794;DHT22;31160;49.500;7.772;2023-02-19T06:09:13;8.70;99.90
13794;DHT22;31160;49.500;7.772;2023-02-19T06:11:40;8.70;99.90
13794;DHT22;31160;49.500;7.772;2023-02-19T06:14:06;8.80;99.90
13794;DHT22;31160;49.500;7.772;2023-02-19T06:16:33;8.70;99.90
13794;DHT22;31160;49.500;7.772;2023-02-19T06:19:03;8.70;99.90
13794;DHT22;31160;49.500;7.772;2023-02-19T06:21:29;8.70;99.90
13794;DHT22;31160;49.500;7.772;2023-02-19T06:23:56;8.80;99.90
13794;DHT22;31160;49.500;7.772;2023-02-19T06:26:24;8.80;99.90
13794;DHT22;31160;49.500;7.772;2023-02-19T06:28:51;8.90;99.90
13794;DHT22;31160;49.500;7.772;2023-02-19T06:31:19;8.90;99.90
13794;DHT22;31160;49.500;7.772;2023-02-19T06:33:46;8.90;99.90
13794;DHT22;31160;49.500;7.772;2023-02-19T06:36:15;9.00;99.90
13794;DHT22;31160;49.500;7.772;2023-02-19T06:38:43;9.10;99.90
13794;DHT22;31160;49.500;7.772;2023-02-19T06:41:11;9.20;99.90
13794;DHT22;31160;49.500;7.772;2023-02-19T06:43:38;9.20;99.90
13794;DHT22;31160;49.500;7.772;2023-02-19T06:46:06;9.10;99.90
13794;DHT22;31160;49.500;7.772;2023-02-19T06:48:34;9.10;99.90
13794;DHT22;31160;49.500;7.772;2023-02-19T06:51:01;8.80;99.90
13794;DHT22;31160;49.500;7.772;2023-02-19T06:53:28;8.70;99.90
13794;DHT22;31160;49.500;7.772;2023-02-19T06:55:59;8.70;99.90
13794;DHT22;31160;49.500;7.772;2023-02-19T06:58:27;8.90;99.90
13794;DHT22;31160;49.500;7.772;2023-02-19T07:00:54;8.80;99.90
13794;DHT22;31160;49.500;7.772;2023-02-19T07:03:21;8.90;99.90
13794;DHT22;31160;49.500;7.772;2023-02-19T07:05:48;9.00;99.90
13794;DHT22;31160;49.500;7.772;2023-02-19T07:08:14;8.90;99.90
13794;DHT22;31160;49.500;7.772;2023-02-19T07:10:44;8.90;99.90
13794;DHT22;31160;49.500;7.772;2023-02-19T07:13:11;9.00;99.90
13794;DHT22;31160;49.500;7.772;2023-02-19T07:15:37;9.10;99.90
13794;DHT22;31160;49.500;7.772;2023-02-19T07:18:04;9.00;99.90
13794;DHT22;31160;49.500;7.772;2023-02-19T07:20:33;9.10;99.90
13794;DHT22;31160;49.500;7.772;2023-02-19T07:22:59;9.00;99.90
13794;DHT22;31160;49.500;7.772;2023-02-19T07:25:26;9.10;99.90
13794;DHT22;31160;49.500;7.772;2023-02-19T07:27:53;9.10;99.90
13794;DHT22;31160;49.500;7.772;2023-02-19T07:30:19;9.20;99.90
13794;DHT22;31160;49.500;7.772;2023-02-19T07:32:46;9.10;99.90
13794;DHT22;31160;49.500;7.772;2023-02-19T07:35:13;9.20;99.90
13794;DHT22;31160;49.500;7.772;2023-02-19T07:37:40;9.10;99.90
13794;DHT22;31160;49.500;7.772;2023-02-19T07:40:07;9.20;99.90
13794;DHT22;31160;49.500;7.772;2023-02-19T07:42:34;9.20;99.90
13794;DHT22;31160;49.500;7.772;2023-02-19T07:45:01;9.10;99.90
13794;DHT22;31160;49.500;7.772;2023-02-19T07:47:28;9.20;99.90
13794;DHT22;31160;49.500;7.772;2023-02-19T07:49:55;9.30;99.90
13794;DHT22;31160;49.500;7.772;2023-02-19T07:52:22;9.50;99.90
13794;DHT22;31160;49.500;7.772;2023-02-19T07:54:48;9.40;99.90
13794;DHT22;31160;49.500;7.772;2023-02-19T07:57:15;9.20;99.90
13794;DHT22;31160;49.500;7.772;2023-02-19T07:59:42;9.40;99.90
13794;DHT22;31160;49.500;7.772;2023-02-19T08:02:16;9.50;99.90
13794;DHT22;31160;49.500;7.772;2023-02-19T08:05:02;9.60;99.90
13794;DHT22;31160;49.500;7.772;2023-02-19T08:07:31;9.60;99.90
13794;DHT22;31160;49.500;7.772;2023-02-19T08:09:58;9.60;99.90
13794;DHT22;31160;49.500;7.772;2023-02-19T08:12:45;9.60;99.90
13794;DHT22;31160;49.500;7.772;2023-02-19T08:15:38;9.70;99.90
13794;DHT22;31160;49.500;7.772;2023-02-19T08:18:05;9.70;99.90
13794;DHT22;31160;49.500;7.772;2023-02-19T08:20:33;9.80;99.90
13794;DHT22;31160;49.500;7.772;2023-02-19T08:23:00;9.80;99.90
13794;DHT22;31160;49.500;7.772;2023-02-19T08:25:27;9.80;99.90
13794;DHT22;31160;49.500;7.772;2023-02-19T08:27:54;9.60;99.90
13794;DHT22;31160;49.500;7.772;2023-02-19T08:30:21;9.50;99.90
13794;DHT22;31160;49.500;7.772;2023-02-19T08:32:48;9.50;99.90
13794;DHT22;31160;49.500;7.772;2023-02-19T08:35:15;9.60;99.90
13794;DHT22;31160;49.500;7.772;2023-02-19T08:37:42;9.60;99.90
13794;DHT22;31160;49.500;7.772;2023-02-19T08:40:09;9.50;99.90
13794;DHT22;31160;49.500;7.772;2023-02-19T08:42:36;9.50;99.90
13794;DHT22;31160;49.500;7.772;2023-02-19T08:45:03;9.70;99.90
13794;DHT22;31160;49.500;7.772;2023-02-19T08:47:30;9.70;99.90
13794;DHT22;31160;49.500;7.772;2023-02-19T08:49:57;9.70;99.90
13794;DHT22;31160;49.500;7.772;2023-02-19T08:52:24;9.60;99.90
13794;DHT22;31160;49.500;7.772;2023-02-19T08:54:50;9.50;99.90
13794;DHT22;31160;49.500;7.772;2023-02-19T08:57:17;9.70;99.90
13794;DHT22;31160;49.500;7.772;2023-02-19T08:59:44;9.90;99.90
13794;DHT22;31160;49.500;7.772;2023-02-19T09:02:11;10.00;99.90
13794;DHT22;31160;49.500;7.772;2023-02-19T09:04:38;9.80;99.90
13794;DHT22;31160;49.500;7.772;2023-02-19T09:07:05;10.10;99.90
13794;DHT22;31160;49.500;7.772;2023-02-19T09:09:35;10.30;99.90
13794;DHT22;31160;49.500;7.772;2023-02-19T09:12:04;10.40;99.90
13794;DHT22;31160;49.500;7.772;2023-02-19T09:14:31;10.50;99.90
13794;DHT22;31160;49.500;7.772;2023-02-19T09:17:04;10.70;99.90
13794;DHT22;31160;49.500;7.772;2023-02-19T09:19:32;10.50;99.90
13794;DHT22;31160;49.500;7.772;2023-02-19T09:21:58;10.50;99.90
13794;DHT22;31160;49.500;7.772;2023-02-19T09:24:25;10.60;99.90
13794;DHT22;31160;49.500;7.772;2023-02-19T09:26:53;10.60;99.90
13794;DHT22;31160;49.500;7.772;2023-02-19T09:29:23;10.90;99.90
13794;DHT22;31160;49.500;7.772;2023-02-19T09:31:50;10.80;99.90
13794;DHT22;31160;49.500;7.772;2023-02-19T09:34:17;10.80;99.90
13794;DHT22;31160;49.500;7.772;2023-02-19T09:36:44;10.80;99.90
13794;DHT22;31160;49.500;7.772;2023-02-19T09:39:10;10.90;99.90
13794;DHT22;31160;49.500;7.772;2023-02-19T09:42:11;11.10;99.90
13794;DHT22;31160;49.500;7.772;2023-02-19T09:44:43;10.90;99.90
13794;DHT22;31160;49.500;7.772;2023-02-19T09:47:22;10.90;99.90
13794;DHT22;31160;49.500;7.772;2023-02-19T09:49:55;10.70;99.90
13794;DHT22;31160;49.500;7.772;2023-02-19T09:52:39;10.70;99.90
13794;DHT22;31160;49.500;7.772;2023-02-19T09:55:17;10.40;99.90
13794;DHT22;31160;49.500;7.772;2023-02-19T09:57:50;10.50;99.90
13794;DHT22;31160;49.500;7.772;2023-02-19T10:00:23;10.60;99.90
13794;DHT22;31160;49.500;7.772;2023-02-19T10:03:01;10.80;99.90
13794;DHT22;31160;49.500;7.772;2023-02-19T10:05:30;10.60;99.90
13794;DHT22;31160;49.500;7.772;2023-02-19T10:07:57;10.70;99.90
13794;DHT22;31160;49.500;7.772;2023-02-19T10:10:31;10.70;99.90
13794;DHT22;31160;49.500;7.772;2023-02-19T10:13:20;10.70;99.90
13794;DHT22;31160;49.500;7.772;2023-02-19T10:15:53;10.90;99.90
13794;DHT22;31160;49.500;7.772;2023-02-19T10:18:25;10.90;99.90
13794;DHT22;31160;49.500;7.772;2023-02-19T10:20:56;10.90;99.90
13794;DHT22;31160;49.500;7.772;2023-02-19T10:23:23;11.20;99.90
13794;DHT22;31160;49.500;7.772;2023-02-19T10:25:56;11.30;99.90
13794;DHT22;31160;49.500;7.772;2023-02-19T10:28:27;11.20;99.90
13794;DHT22;31160;49.500;7.772;2023-02-19T10:30:56;11.20;99.90
13794;DHT22;31160;49.500;7.772;2023-02-19T10:33:24;11.40;99.90
13794;DHT22;31160;49.500;7.772;2023-02-19T10:35:54;11.50;99.90
13794;DHT22;31160;49.500;7.772;2023-02-19T10:38:29;11.60;99.90
13794;DHT22;31160;49.500;7.772;2023-02-19T10:41:03;11.90;99.90
13794;DHT22;31160;49.500;7.772;2023-02-19T10:43:34;12.10;99.90
13794;DHT22;31160;49.500;7.772;2023-02-19T10:48:48;12.20;99.90
13794;DHT22;31160;49.500;7.772;2023-02-19T10:51:17;12.10;99.90
13794;DHT22;31160;49.500;7.772;2023-02-19T10:53:48;12.00;99.90
13794;DHT22;31160;49.500;7.772;2023-02-19T10:56:23;12.40;99.90
13794;DHT22;31160;49.500;7.772;2023-02-19T10:58:50;12.40;99.90
13794;DHT22;31160;49.500;7.772;2023-02-19T11:04:13;12.70;99.90
13794;DHT22;31160;49.500;7.772;2023-02-19T11:06:40;12.30;99.90
13794;DHT22;31160;49.500;7.772;2023-02-19T11:09:28;12.20;99.90
13794;DHT22;31160;49.500;7.772;2023-02-19T11:11:56;12.30;99.90
13794;DHT22;31160;49.500;7.772;2023-02-19T11:14:25;12.40;99.90
13794;DHT22;31160;49.500;7.772;2023-02-19T11:16:55;12.30;99.90
13794;DHT22;31160;49.500;7.772;2023-02-19T11:19:26;12.40;99.90
13794;DHT22;31160;49.500;7.772;2023-02-19T11:21:54;11.70;99.90
13794;DHT22;31160;49.500;7.772;2023-02-19T11:24:31;11.90;99.90
13794;DHT22;31160;49.500;7.772;2023-02-19T11:27:01;11.80;99.90
13794;DHT22;31160;49.500;7.772;2023-02-19T11:29:29;11.80;99.90
13794;DHT22;31160;49.500;7.772;2023-02-19T11:32:28;12.00;99.90
13794;DHT22;31160;49.500;7.772;2023-02-19T11:35:20;12.20;99.90
13794;DHT22;31160;49.500;7.772;2023-02-19T11:37:55;12.20;99.90
13794;DHT22;31160;49.500;7.772;2023-02-19T11:46:08;12.30;99.90
13794;DHT22;31160;49.500;7.772;2023-02-19T11:48:52;12.40;99.90
13794;DHT22;31160;49.500;7.772;2023-02-19T11:54:12;12.50;99.90
13794;DHT22;31160;49.500;7.772;2023-02-19T11:56:48;12.60;99.90
13794;DHT22;31160;49.500;7.772;2023-02-19T12:05:02;12.80;99.90
13794;DHT22;31160;49.500;7.772;2023-02-19T12:08:05;13.10;99.90
13794;DHT22;31160;49.500;7.772;2023-02-19T12:13:56;13.20;99.90
13794;DHT22;31160;49.500;7.772;2023-02-19T12:19:26;13.00;99.90
13794;DHT22;31160;49.500;7.772;2023-02-19T12:22:15;13.10;99.90
13794;DHT22;31160;49.500;7.772;2023-02-19T12:33:12;12.60;99.90
13794;DHT22;31160;49.500;7.772;2023-02-19T12:38:42;12.80;99.90
13794;DHT22;31160;49.500;7.772;2023-02-19T12:41:19;12.90;99.90
13794;DHT22;31160;49.500;7.772;2023-02-19T12:44:01;12.90;99.90
13794;DHT22;31160;49.500;7.772;2023-02-19T12:46:37;12.70;99.90
13794;DHT22;31160;49.500;7.772;2023-02-19T12:49:10;12.30;99.90
13794;DHT22;31160;49.500;7.772;2023-02-19T12:51:51;12.50;99.90
13794;DHT22;31160;49.500;7.772;2023-02-19T12:54:26;12.30;99.90
13794;DHT22;31160;49.500;7.772;2023-02-19T12:59:56;12.10;99.90
13794;DHT22;31160;49.500;7.772;2023-02-19T13:02:40;12.10;99.90
13794;DHT22;31160;49.500;7.772;2023-02-19T13:05:44;12.00;99.90
13794;DHT22;31160;49.500;7.772;2023-02-19T13:11:09;12.30;99.90
13794;DHT22;31160;49.500;7.772;2023-02-19T13:13:44;12.30;99.90
13794;DHT22;31160;49.500;7.772;2023-02-19T13:16:18;12.60;99.90
13794;DHT22;31160;49.500;7.772;2023-02-19T13:18:52;12.90;99.90
13794;DHT22;31160;49.500;7.772;2023-02-19T13:21:21;13.10;99.90
13794;DHT22;31160;49.500;7.772;2023-02-19T13:24:11;12.80;99.90
13794;DHT22;31160;49.500;7.772;2023-02-19T13:29:29;12.80;99.90
13794;DHT22;31160;49.500;7.772;2023-02-19T13:37:15;13.00;99.90
13794;DHT22;31160;49.500;7.772;2023-02-19T13:39:51;13.00;99.90
13794;DHT22;31160;49.500;7.772;2023-02-19T13:42:32;12.50;99.90
13794;DHT22;31160;49.500;7.772;2023-02-19T13:45:02;12.40;99.90
13794;DHT22;31160;49.500;7.772;2023-02-19T13:47:48;12.50;99.90
13794;DHT22;31160;49.500;7.772;2023-02-19T13:50:30;12.50;99.90
13794;DHT22;31160;49.500;7.772;2023-02-19T13:53:01;12.50;99.90
13794;DHT22;31160;49.500;7.772;2023-02-19T13:55:47;12.80;99.90
13794;DHT22;31160;49.500;7.772;2023-02-19T13:58:33;12.80;99.90
13794;DHT22;31160;49.500;7.772;2023-02-19T14:01:06;13.00;99.90
13794;DHT22;31160;49.500;7.772;2023-02-19T14:06:04;12.90;99.90
13794;DHT22;31160;49.500;7.772;2023-02-19T14:14:28;12.50;99.90
13794;DHT22;31160;49.500;7.772;2023-02-19T14:17:03;12.30;99.90
13794;DHT22;31160;49.500;7.772;2023-02-19T14:25:45;11.90;99.90
13794;DHT22;31160;49.500;7.772;2023-02-19T14:33:39;12.10;99.90
13794;DHT22;31160;49.500;7.772;2023-02-19T14:36:30;12.00;99.90
13794;DHT22;31160;49.500;7.772;2023-02-19T14:39:04;12.20;99.90
13794;DHT22;31160;49.500;7.772;2023-02-19T14:41:36;12.20;99.90
13794;DHT22;31160;49.500;7.772;2023-02-19T14:44:06;12.10;99.90
13794;DHT22;31160;49.500;7.772;2023-02-19T14:46:45;12.10;99.90
13794;DHT22;31160;49.500;7.772;2023-02-19T14:49:29;11.90;99.90
13794;DHT22;31160;49.500;7.772;2023-02-19T14:52:02;11.90;99.90
13794;DHT22;31160;49.500;7.772;2023-02-19T14:54:37;11.80;99.90
13794;DHT22;31160;49.500;7.772;2023-02-19T14:57:11;11.80;99.90
13794;DHT22;31160;49.500;7.772;2023-02-19T14:59:38;11.70;99.90
13794;DHT22;31160;49.500;7.772;2023-02-19T15:02:15;11.50;99.90
13794;DHT22;31160;49.500;7.772;2023-02-19T15:04:46;11.40;99.90
13794;DHT22;31160;49.500;7.772;2023-02-19T15:07:18;11.30;99.90
13794;DHT22;31160;49.500;7.772;2023-02-19T15:09:48;11.20;99.90
13794;DHT22;31160;49.500;7.772;2023-02-19T15:12:19;11.20;99.90
13794;DHT22;31160;49.500;7.772;2023-02-19T15:14:48;11.20;99.90
13794;DHT22;31160;49.500;7.772;2023-02-19T15:17:31;11.10;99.90
13794;DHT22;31160;49.500;7.772;2023-02-19T15:20:03;11.10;99.90
13794;DHT22;31160;49.500;7.772;2023-02-19T15:22:34;11.10;99.90
13794;DHT22;31160;49.500;7.772;2023-02-19T15:25:04;11.00;99.90
13794;DHT22;31160;49.500;7.772;2023-02-19T15:27:31;10.90;99.90
13794;DHT22;31160;49.500;7.772;2023-02-19T15:30:02;10.90;99.90
13794;DHT22;31160;49.500;7.772;2023-02-19T15:32:29;11.00;99.90
13794;DHT22;31160;49.500;7.772;2023-02-19T15:34:59;10.90;99.90
13794;DHT22;31160;49.500;7.772;2023-02-19T15:37:28;11.00;99.90
13794;DHT22;31160;49.500;7.772;2023-02-19T15:39:57;10.90;99.90
13794;DHT22;31160;49.500;7.772;2023-02-19T15:42:27;10.90;99.90
13794;DHT22;31160;49.500;7.772;2023-02-19T15:44:59;11.00;99.90
13794;DHT22;31160;49.500;7.772;2023-02-19T15:47:36;10.90;99.90
13794;DHT22;31160;49.500;7.772;2023-02-19T15:53:23;10.90;99.90
13794;DHT22;31160;49.500;7.772;2023-02-19T15:58:57;10.80;99.90
13794;DHT22;31160;49.500;7.772;2023-02-19T16:01:27;10.70;99.90
13794;DHT22;31160;49.500;7.772;2023-02-19T16:03:55;10.70;99.90
13794;DHT22;31160;49.500;7.772;2023-02-19T16:06:23;10.80;99.90
13794;DHT22;31160;49.500;7.772;2023-02-19T16:14:21;10.70;99.90
13794;DHT22;31160;49.500;7.772;2023-02-19T16:16:52;10.90;99.90
13794;DHT22;31160;49.500;7.772;2023-02-19T16:19:25;10.90;99.90
13794;DHT22;31160;49.500;7.772;2023-02-19T16:21:54;10.90;99.90
13794;DHT22;31160;49.500;7.772;2023-02-19T16:24:33;10.90;99.90
13794;DHT22;31160;49.500;7.772;2023-02-19T16:27:02;10.80;99.90
13794;DHT22;31160;49.500;7.772;2023-02-19T16:29:31;10.80;99.90
13794;DHT22;31160;49.500;7.772;2023-02-19T16:32:03;10.80;99.90
13794;DHT22;31160;49.500;7.772;2023-02-19T16:37:32;10.90;99.90
13794;DHT22;31160;49.500;7.772;2023-02-19T16:45:17;10.80;99.90
13794;DHT22;31160;49.500;7.772;2023-02-19T16:47:44;10.60;99.90
13794;DHT22;31160;49.500;7.772;2023-02-19T16:50:21;10.60;99.90
13794;DHT22;31160;49.500;7.772;2023-02-19T16:53:00;10.60;99.90
13794;DHT22;31160;49.500;7.772;2023-02-19T16:55:28;10.50;99.90
13794;DHT22;31160;49.500;7.772;2023-02-19T16:57:55;10.50;99.90
13794;DHT22;31160;49.500;7.772;2023-02-19T17:00:24;10.40;99.90
13794;DHT22;31160;49.500;7.772;2023-02-19T17:02:53;10.40;99.90
13794;DHT22;31160;49.500;7.772;2023-02-19T17:05:21;10.30;99.90
13794;DHT22;31160;49.500;7.772;2023-02-19T17:07:49;10.30;99.90
13794;DHT22;31160;49.500;7.772;2023-02-19T17:10:24;10.40;99.90
13794;DHT22;31160;49.500;7.772;2023-02-19T17:12:52;10.30;99.90
13794;DHT22;31160;49.500;7.772;2023-02-19T17:15:20;10.30;99.90
13794;DHT22;31160;49.500;7.772;2023-02-19T17:17:47;10.20;99.90
13794;DHT22;31160;49.500;7.772;2023-02-19T17:20:21;10.00;99.90
13794;DHT22;31160;49.500;7.772;2023-02-19T17:22:49;10.00;99.90
13794;DHT22;31160;49.500;7.772;2023-02-19T17:25:16;9.80;99.90
13794;DHT22;31160;49.500;7.772;2023-02-19T17:27:42;9.80;99.90
13794;DHT22;31160;49.500;7.772;2023-02-19T17:30:12;9.90;99.90
13794;DHT22;31160;49.500;7.772;2023-02-19T17:32:40;10.10;99.90
13794;DHT22;31160;49.500;7.772;2023-02-19T17:35:07;10.00;99.90
13794;DHT22;31160;49.500;7.772;2023-02-19T17:37:34;9.90;99.90
13794;DHT22;31160;49.500;7.772;2023-02-19T17:40:01;10.00;99.90
13794;DHT22;31160;49.500;7.772;2023-02-19T17:42:27;10.10;99.90
13794;DHT22;31160;49.500;7.772;2023-02-19T17:44:54;10.10;99.90
13794;DHT22;31160;49.500;7.772;2023-02-19T17:47:21;10.10;99.90
13794;DHT22;31160;49.500;7.772;2023-02-19T17:49:47;10.10;99.90
13794;DHT22;31160;49.500;7.772;2023-02-19T17:52:14;10.20;99.90
13794;DHT22;31160;49.500;7.772;2023-02-19T17:54:43;10.20;99.90
13794;DHT22;31160;49.500;7.772;2023-02-19T17:57:09;10.20;99.90
13794;DHT22;31160;49.500;7.772;2023-02-19T17:59:36;10.20;99.90
13794;DHT22;31160;49.500;7.772;2023-02-19T18:02:03;10.20;99.90
13794;DHT22;31160;49.500;7.772;2023-02-19T18:04:29;10.10;99.90
13794;DHT22;31160;49.500;7.772;2023-02-19T18:06:56;10.20;99.90
13794;DHT22;31160;49.500;7.772;2023-02-19T18:09:23;10.20;99.90
13794;DHT22;31160;49.500;7.772;2023-02-19T18:11:50;10.20;99.90